Terminal Aerodrome Forecast
Issued by NWS Goodland, KS

Home | Current Version | Previous Version | Graphics & Text | Print | Product List | Glossary On
Versions: 1 2 3 4 5 6 7 8 9 10 11 12
637
FTUS43 KGLD 062320
TAFGLD
TAF
KGLD 062320Z 0700/0724 24010G16KT P6SM SCT250
     FM070500 28012KT P6SM FEW250 WS020/33035KT
     FM070900 30012G18KT P6SM FEW250
     FM071700 34018G28KT P6SM SCT200=

USA.gov is the U.S. government's official web portal to all federal, state and local government web resources and services.